RYR6PL EDDH-EPGD
Flight info
| Callsign | RYR6PL |
|---|---|
| Flight time | 0h 59m |
| Altitude | 35000 |
| Route | LUGE3G LUGEG P605 MEGAR DCT KOSEB DCT RUMAR L983 DOMAG T240 OGDAV |
| Aircraft | B738/M-SDE2E3FGHIRWXY/LB1 |
Departure
| Time | 2026-04-26 18:32 |
|---|---|
| Airport | Hamburg Helmut Schmidt Airport (EDDH) |
Arrival
| Time | 2026-04-26 19:32 |
|---|---|
| Airport | Gdańsk Lech Wałęsa Airport (EPGD) |
| Time | Latitude | Longitude | Altitude | Speed | Heading |
|---|---|---|---|---|---|
| 2026-04-26 17:54 | 53.62805 | 10.00235 | 46 ft | 0 kts | 62° |
| 2026-04-26 18:25 | 53.62803 | 10.00228 | 47 ft | 4 kts | 62° |
| 2026-04-26 18:25 | 53.62791 | 10.00188 | 44 ft | 4 kts | 62° |
| 2026-04-26 18:25 | 53.62781 | 10.00159 | 44 ft | 4 kts | 34° |
| 2026-04-26 18:26 | 53.62758 | 10.00151 | 46 ft | 4 kts | 346° |
| 2026-04-26 18:26 | 53.62741 | 10.00161 | 43 ft | 0 kts | 333° |
| 2026-04-26 18:29 | 53.62747 | 10.00156 | 45 ft | 3 kts | 333° |
| 2026-04-26 18:29 | 53.62780 | 10.00128 | 44 ft | 8 kts | 333° |
| 2026-04-26 18:30 | 53.62839 | 10.00071 | 47 ft | 12 kts | 316° |
| 2026-04-26 18:30 | 53.62847 | 9.99972 | 47 ft | 7 kts | 252° |
| 2026-04-26 18:30 | 53.62824 | 9.99888 | 45 ft | 8 kts | 244° |
| 2026-04-26 18:30 | 53.62811 | 9.99786 | 44 ft | 9 kts | 291° |
| 2026-04-26 18:31 | 53.62867 | 9.99745 | 41 ft | 9 kts | 336° |
| 2026-04-26 18:31 | 53.62923 | 9.99697 | 44 ft | 10 kts | 333° |
| 2026-04-26 18:31 | 53.63128 | 9.99519 | 45 ft | 65 kts | 332° |
| 2026-04-26 18:31 | 53.63714 | 9.99013 | 47 ft | 124 kts | 333° |
| 2026-04-26 18:32 | 53.64624 | 9.98176 | 138 ft | 164 kts | 333° |
| 2026-04-26 18:32 | 53.65667 | 9.97398 | 701 ft | 167 kts | 334° |
| 2026-04-26 18:32 | 53.66674 | 9.96556 | 1504 ft | 161 kts | 331° |
| 2026-04-26 18:32 | 53.67712 | 9.95647 | 2074 ft | 169 kts | 331° |
| 2026-04-26 18:33 | 53.68756 | 9.94760 | 2785 ft | 171 kts | 337° |
| 2026-04-26 18:33 | 53.69989 | 9.94630 | 3317 ft | 186 kts | 359° |
| 2026-04-26 18:33 | 53.71383 | 9.94663 | 3569 ft | 211 kts | 358° |
| 2026-04-26 18:33 | 53.72860 | 9.94907 | 3903 ft | 223 kts | 19° |
| 2026-04-26 18:34 | 53.74109 | 9.96541 | 4203 ft | 241 kts | 57° |
| 2026-04-26 18:34 | 53.74928 | 9.99194 | 4407 ft | 262 kts | 64° |
| 2026-04-26 18:34 | 53.75717 | 10.02013 | 4872 ft | 274 kts | 64° |
| 2026-04-26 18:34 | 53.76533 | 10.04944 | 5649 ft | 276 kts | 63° |
| 2026-04-26 18:35 | 53.77356 | 10.07883 | 6468 ft | 278 kts | 62° |
| 2026-04-26 18:35 | 53.78190 | 10.10840 | 7238 ft | 279 kts | 62° |
| 2026-04-26 18:35 | 53.79034 | 10.13813 | 7967 ft | 281 kts | 61° |
| 2026-04-26 18:35 | 53.79888 | 10.16809 | 8698 ft | 284 kts | 60° |
| 2026-04-26 18:36 | 53.80749 | 10.19824 | 9455 ft | 286 kts | 60° |
| 2026-04-26 18:36 | 53.81621 | 10.22872 | 10132 ft | 289 kts | 60° |
| 2026-04-26 18:36 | 53.82498 | 10.25945 | 10268 ft | 290 kts | 59° |
| 2026-04-26 18:36 | 53.83382 | 10.29037 | 10394 ft | 297 kts | 60° |
| 2026-04-26 18:37 | 53.84316 | 10.32298 | 10557 ft | 319 kts | 60° |
| 2026-04-26 18:37 | 53.85313 | 10.35784 | 10825 ft | 335 kts | 60° |
| 2026-04-26 18:37 | 53.86334 | 10.39382 | 11375 ft | 342 kts | 60° |
| 2026-04-26 18:37 | 53.87369 | 10.43032 | 12059 ft | 344 kts | 60° |
| 2026-04-26 18:38 | 53.88410 | 10.46706 | 12752 ft | 348 kts | 60° |
| 2026-04-26 18:38 | 53.89462 | 10.50421 | 13442 ft | 351 kts | 60° |
| 2026-04-26 18:38 | 53.90525 | 10.54175 | 14137 ft | 356 kts | 60° |
| 2026-04-26 18:38 | 53.91608 | 10.57987 | 14693 ft | 362 kts | 60° |
| 2026-04-26 18:39 | 53.92707 | 10.61861 | 15345 ft | 365 kts | 60° |
| 2026-04-26 18:39 | 53.93816 | 10.65756 | 16004 ft | 368 kts | 58° |
| 2026-04-26 18:39 | 53.95272 | 10.69293 | 16617 ft | 365 kts | 43° |
| 2026-04-26 18:39 | 53.97027 | 10.72425 | 17272 ft | 368 kts | 41° |
| 2026-04-26 18:40 | 53.98823 | 10.75565 | 17894 ft | 373 kts | 41° |
| 2026-04-26 18:40 | 54.00632 | 10.78760 | 18515 ft | 377 kts | 42° |
| 2026-04-26 18:40 | 54.02448 | 10.82013 | 19069 ft | 381 kts | 42° |
| 2026-04-26 18:40 | 54.04270 | 10.85318 | 19633 ft | 384 kts | 42° |
| 2026-04-26 18:41 | 54.06075 | 10.88618 | 20186 ft | 387 kts | 42° |
| 2026-04-26 18:41 | 54.07914 | 10.91988 | 20727 ft | 390 kts | 42° |
| 2026-04-26 18:41 | 54.09772 | 10.95398 | 21262 ft | 394 kts | 42° |
| 2026-04-26 18:41 | 54.11639 | 10.98829 | 21788 ft | 397 kts | 42° |
| 2026-04-26 18:42 | 54.13524 | 11.02303 | 22306 ft | 400 kts | 42° |
| 2026-04-26 18:42 | 54.15424 | 11.05812 | 22827 ft | 404 kts | 42° |
| 2026-04-26 18:42 | 54.17338 | 11.09349 | 23332 ft | 407 kts | 42° |
| 2026-04-26 18:42 | 54.19267 | 11.12919 | 23827 ft | 410 kts | 42° |
| 2026-04-26 18:43 | 54.21207 | 11.16517 | 24243 ft | 413 kts | 43° |
| 2026-04-26 18:43 | 54.23151 | 11.20152 | 24666 ft | 416 kts | 43° |
| 2026-04-26 18:43 | 54.25101 | 11.23817 | 25146 ft | 417 kts | 42° |
| 2026-04-26 18:43 | 54.27057 | 11.27500 | 25594 ft | 419 kts | 42° |
| 2026-04-26 18:44 | 54.29020 | 11.31199 | 25976 ft | 422 kts | 42° |
| 2026-04-26 18:44 | 54.30997 | 11.34928 | 26343 ft | 425 kts | 42° |
| 2026-04-26 18:44 | 54.32989 | 11.38690 | 26717 ft | 427 kts | 42° |
| 2026-04-26 18:44 | 54.34993 | 11.42479 | 27097 ft | 430 kts | 42° |
| 2026-04-26 18:45 | 54.37005 | 11.46289 | 27466 ft | 432 kts | 42° |
| 2026-04-26 18:45 | 54.39032 | 11.50119 | 27821 ft | 435 kts | 42° |
| 2026-04-26 18:45 | 54.41077 | 11.53971 | 28171 ft | 437 kts | 42° |
| 2026-04-26 18:45 | 54.43132 | 11.57847 | 28516 ft | 440 kts | 42° |
| 2026-04-26 18:46 | 54.45199 | 11.61754 | 28879 ft | 442 kts | 42° |
| 2026-04-26 18:46 | 54.47161 | 11.65771 | 29201 ft | 449 kts | 50° |
| 2026-04-26 18:46 | 54.48843 | 11.70429 | 29549 ft | 455 kts | 55° |
| 2026-04-26 18:46 | 54.50409 | 11.75182 | 29863 ft | 458 kts | 56° |
| 2026-04-26 18:47 | 54.51941 | 11.79922 | 30169 ft | 460 kts | 56° |
| 2026-04-26 18:47 | 54.53498 | 11.84738 | 30474 ft | 461 kts | 56° |
| 2026-04-26 18:47 | 54.55066 | 11.89553 | 30867 ft | 460 kts | 55° |
| 2026-04-26 18:47 | 54.56633 | 11.94336 | 31253 ft | 458 kts | 55° |
| 2026-04-26 18:48 | 54.58209 | 11.99122 | 31589 ft | 458 kts | 55° |
| 2026-04-26 18:48 | 54.59782 | 12.03891 | 31896 ft | 458 kts | 55° |
| 2026-04-26 18:48 | 54.61355 | 12.08664 | 32219 ft | 458 kts | 55° |
| 2026-04-26 18:48 | 54.62926 | 12.13441 | 32552 ft | 457 kts | 55° |
| 2026-04-26 18:49 | 54.64493 | 12.18216 | 32898 ft | 457 kts | 55° |
| 2026-04-26 18:49 | 54.66057 | 12.22991 | 33245 ft | 456 kts | 55° |
| 2026-04-26 18:49 | 54.67613 | 12.27756 | 33601 ft | 455 kts | 55° |
| 2026-04-26 18:49 | 54.69166 | 12.32521 | 33931 ft | 454 kts | 55° |
| 2026-04-26 18:50 | 54.70714 | 12.37276 | 34215 ft | 455 kts | 55° |
| 2026-04-26 18:50 | 54.72260 | 12.42038 | 34451 ft | 455 kts | 55° |
| 2026-04-26 18:50 | 54.73808 | 12.46812 | 34732 ft | 454 kts | 55° |
| 2026-04-26 18:50 | 54.75347 | 12.51568 | 35007 ft | 452 kts | 56° |
| 2026-04-26 18:51 | 54.76865 | 12.56351 | 35265 ft | 454 kts | 59° |
| 2026-04-26 18:51 | 54.78069 | 12.61479 | 35267 ft | 464 kts | 68° |
| 2026-04-26 18:51 | 54.79270 | 12.72569 | 35286 ft | 470 kts | 78° |
| 2026-04-26 18:52 | 54.79997 | 12.81836 | 35270 ft | 465 kts | 78° |
| 2026-04-26 18:52 | 54.81028 | 12.94785 | 35287 ft | 463 kts | 77° |
| 2026-04-26 18:53 | 54.81945 | 13.05821 | 35285 ft | 462 kts | 77° |
| 2026-04-26 18:53 | 54.82868 | 13.16867 | 35311 ft | 463 kts | 77° |
| 2026-04-26 18:54 | 54.83785 | 13.27933 | 35290 ft | 464 kts | 77° |
| 2026-04-26 18:54 | 54.84691 | 13.39010 | 35287 ft | 464 kts | 77° |
| 2026-04-26 18:55 | 54.85585 | 13.50094 | 35282 ft | 464 kts | 77° |
| 2026-04-26 18:55 | 54.86470 | 13.61190 | 35296 ft | 464 kts | 77° |
| 2026-04-26 18:56 | 54.87198 | 13.70430 | 35305 ft | 465 kts | 78° |
| 2026-04-26 18:56 | 54.88066 | 13.81550 | 35290 ft | 465 kts | 77° |
| 2026-04-26 18:57 | 54.88780 | 13.90818 | 35285 ft | 466 kts | 78° |
| 2026-04-26 18:57 | 54.89773 | 14.03853 | 35285 ft | 466 kts | 78° |
| 2026-04-26 18:58 | 54.90613 | 14.15022 | 35286 ft | 466 kts | 78° |
| 2026-04-26 18:58 | 54.91442 | 14.26201 | 35282 ft | 466 kts | 78° |
| 2026-04-26 18:59 | 54.92261 | 14.37386 | 35280 ft | 467 kts | 78° |
| 2026-04-26 18:59 | 54.92665 | 14.42956 | 35044 ft | 461 kts | 78° |
| 2026-04-26 18:59 | 54.93056 | 14.48428 | 34790 ft | 452 kts | 78° |
| 2026-04-26 19:00 | 54.93438 | 14.53809 | 34537 ft | 444 kts | 77° |
| 2026-04-26 19:00 | 54.93814 | 14.59113 | 34293 ft | 440 kts | 77° |
| 2026-04-26 19:00 | 54.94154 | 14.64391 | 34020 ft | 440 kts | 82° |
| 2026-04-26 19:00 | 54.94138 | 14.69743 | 33749 ft | 443 kts | 88° |
| 2026-04-26 19:01 | 54.93976 | 14.75084 | 33484 ft | 442 kts | 89° |
| 2026-04-26 19:01 | 54.93777 | 14.80409 | 33216 ft | 441 kts | 89° |
| 2026-04-26 19:01 | 54.93575 | 14.85721 | 32952 ft | 439 kts | 89° |
| 2026-04-26 19:01 | 54.93386 | 14.90948 | 32711 ft | 438 kts | 89° |
| 2026-04-26 19:02 | 54.93205 | 14.96234 | 32451 ft | 437 kts | 88° |
| 2026-04-26 19:02 | 54.93032 | 15.01510 | 32200 ft | 436 kts | 88° |
| 2026-04-26 19:02 | 54.92865 | 15.06759 | 31944 ft | 434 kts | 88° |
| 2026-04-26 19:02 | 54.92753 | 15.10307 | 31772 ft | 434 kts | 88° |
| 2026-04-26 19:03 | 54.92534 | 15.17224 | 31438 ft | 432 kts | 88° |
| 2026-04-26 19:03 | 54.92368 | 15.22421 | 31185 ft | 430 kts | 88° |
| 2026-04-26 19:03 | 54.92200 | 15.27605 | 30936 ft | 428 kts | 88° |
| 2026-04-26 19:03 | 54.92030 | 15.32759 | 30685 ft | 426 kts | 88° |
| 2026-04-26 19:04 | 54.91858 | 15.37889 | 30441 ft | 424 kts | 88° |
| 2026-04-26 19:04 | 54.91685 | 15.42998 | 30189 ft | 423 kts | 88° |
| 2026-04-26 19:04 | 54.91511 | 15.48081 | 29900 ft | 421 kts | 88° |
| 2026-04-26 19:04 | 54.91335 | 15.53152 | 29615 ft | 419 kts | 88° |
| 2026-04-26 19:05 | 54.90979 | 15.63217 | 29042 ft | 416 kts | 88° |
| 2026-04-26 19:05 | 54.90799 | 15.68222 | 28774 ft | 414 kts | 88° |
| 2026-04-26 19:05 | 54.90618 | 15.73207 | 28499 ft | 411 kts | 88° |
| 2026-04-26 19:06 | 54.90435 | 15.78151 | 28225 ft | 408 kts | 88° |
| 2026-04-26 19:06 | 54.90253 | 15.83051 | 27956 ft | 406 kts | 88° |
| 2026-04-26 19:06 | 54.90069 | 15.87946 | 27691 ft | 405 kts | 88° |
| 2026-04-26 19:06 | 54.89884 | 15.92826 | 27422 ft | 404 kts | 89° |
| 2026-04-26 19:07 | 54.89554 | 15.97681 | 27273 ft | 407 kts | 99° |
| 2026-04-26 19:07 | 54.88824 | 16.02445 | 27283 ft | 409 kts | 102° |
| 2026-04-26 19:07 | 54.88020 | 16.07203 | 27062 ft | 414 kts | 103° |
| 2026-04-26 19:07 | 54.87192 | 16.11994 | 26805 ft | 412 kts | 103° |
| 2026-04-26 19:08 | 54.86372 | 16.16743 | 26543 ft | 408 kts | 103° |
| 2026-04-26 19:08 | 54.85567 | 16.21445 | 26283 ft | 404 kts | 103° |
| 2026-04-26 19:08 | 54.84778 | 16.26101 | 26027 ft | 401 kts | 102° |
| 2026-04-26 19:08 | 54.83998 | 16.30739 | 25777 ft | 399 kts | 102° |
| 2026-04-26 19:09 | 54.83236 | 16.35288 | 25533 ft | 397 kts | 102° |
| 2026-04-26 19:09 | 54.82456 | 16.39940 | 25286 ft | 395 kts | 102° |
| 2026-04-26 19:09 | 54.81700 | 16.44450 | 25041 ft | 394 kts | 102° |
| 2026-04-26 19:09 | 54.80924 | 16.49068 | 24828 ft | 394 kts | 102° |
| 2026-04-26 19:10 | 54.80168 | 16.53560 | 24588 ft | 393 kts | 102° |
| 2026-04-26 19:10 | 54.79399 | 16.58116 | 24359 ft | 393 kts | 102° |
| 2026-04-26 19:10 | 54.78619 | 16.62723 | 24126 ft | 394 kts | 102° |
| 2026-04-26 19:10 | 54.77857 | 16.67208 | 23899 ft | 394 kts | 102° |
| 2026-04-26 19:11 | 54.77083 | 16.71758 | 23630 ft | 394 kts | 102° |
| 2026-04-26 19:11 | 54.76306 | 16.76305 | 23356 ft | 393 kts | 102° |
| 2026-04-26 19:11 | 54.75530 | 16.80842 | 23085 ft | 393 kts | 102° |
| 2026-04-26 19:11 | 54.74755 | 16.85350 | 22842 ft | 389 kts | 102° |
| 2026-04-26 19:12 | 54.73987 | 16.89806 | 22549 ft | 385 kts | 102° |
| 2026-04-26 19:12 | 54.73222 | 16.94236 | 22181 ft | 383 kts | 102° |
| 2026-04-26 19:12 | 54.72462 | 16.98635 | 21818 ft | 381 kts | 102° |
| 2026-04-26 19:12 | 54.71701 | 17.03024 | 21447 ft | 381 kts | 101° |
| 2026-04-26 19:13 | 54.70940 | 17.07408 | 21071 ft | 380 kts | 101° |
| 2026-04-26 19:13 | 54.70180 | 17.11767 | 20745 ft | 378 kts | 101° |
| 2026-04-26 19:13 | 54.69423 | 17.16101 | 20426 ft | 375 kts | 101° |
| 2026-04-26 19:13 | 54.68668 | 17.20414 | 20103 ft | 374 kts | 101° |
| 2026-04-26 19:14 | 54.67915 | 17.24704 | 19781 ft | 372 kts | 101° |
| 2026-04-26 19:14 | 54.67164 | 17.28974 | 19462 ft | 370 kts | 101° |
| 2026-04-26 19:14 | 54.66416 | 17.33217 | 19156 ft | 369 kts | 101° |
| 2026-04-26 19:14 | 54.65921 | 17.36021 | 18945 ft | 368 kts | 101° |
| 2026-04-26 19:15 | 54.64924 | 17.41651 | 18533 ft | 365 kts | 101° |
| 2026-04-26 19:15 | 54.64182 | 17.45835 | 18188 ft | 364 kts | 102° |
| 2026-04-26 19:15 | 54.63443 | 17.49984 | 17905 ft | 361 kts | 101° |
| 2026-04-26 19:15 | 54.62704 | 17.54126 | 17570 ft | 360 kts | 101° |
| 2026-04-26 19:16 | 54.61969 | 17.58241 | 17252 ft | 358 kts | 101° |
| 2026-04-26 19:16 | 54.61239 | 17.62306 | 16878 ft | 352 kts | 101° |
| 2026-04-26 19:16 | 54.60518 | 17.66323 | 16362 ft | 350 kts | 101° |
| 2026-04-26 19:16 | 54.59798 | 17.70325 | 15864 ft | 348 kts | 101° |
| 2026-04-26 19:17 | 54.59082 | 17.74297 | 15420 ft | 344 kts | 101° |
| 2026-04-26 19:17 | 54.58382 | 17.78164 | 14982 ft | 341 kts | 101° |
| 2026-04-26 19:17 | 54.57679 | 17.82048 | 14541 ft | 338 kts | 101° |
| 2026-04-26 19:17 | 54.56979 | 17.85905 | 14099 ft | 335 kts | 102° |
| 2026-04-26 19:18 | 54.56286 | 17.89716 | 13627 ft | 332 kts | 102° |
| 2026-04-26 19:18 | 54.55600 | 17.93487 | 13175 ft | 328 kts | 102° |
| 2026-04-26 19:18 | 54.54918 | 17.97219 | 12736 ft | 324 kts | 102° |
| 2026-04-26 19:18 | 54.54244 | 18.00905 | 12311 ft | 321 kts | 102° |
| 2026-04-26 19:19 | 54.53576 | 18.04548 | 11886 ft | 317 kts | 103° |
| 2026-04-26 19:19 | 54.52916 | 18.08144 | 11459 ft | 314 kts | 103° |
| 2026-04-26 19:19 | 54.52260 | 18.11710 | 11037 ft | 310 kts | 103° |
| 2026-04-26 19:19 | 54.51611 | 18.15231 | 10625 ft | 307 kts | 104° |
| 2026-04-26 19:20 | 54.50968 | 18.18716 | 10213 ft | 304 kts | 104° |
| 2026-04-26 19:20 | 54.50544 | 18.21009 | 9914 ft | 302 kts | 104° |
| 2026-04-26 19:20 | 54.49696 | 18.25586 | 9296 ft | 298 kts | 104° |
| 2026-04-26 19:20 | 54.49069 | 18.28959 | 8843 ft | 295 kts | 104° |
| 2026-04-26 19:21 | 54.48446 | 18.32309 | 8394 ft | 292 kts | 104° |
| 2026-04-26 19:21 | 54.47831 | 18.35613 | 7959 ft | 289 kts | 105° |
| 2026-04-26 19:21 | 54.47219 | 18.38891 | 7532 ft | 286 kts | 105° |
| 2026-04-26 19:21 | 54.46611 | 18.42139 | 7108 ft | 284 kts | 105° |
| 2026-04-26 19:22 | 54.46010 | 18.45352 | 6686 ft | 282 kts | 105° |
| 2026-04-26 19:22 | 54.45412 | 18.48542 | 6257 ft | 279 kts | 105° |
| 2026-04-26 19:22 | 54.44816 | 18.51716 | 5901 ft | 279 kts | 105° |
| 2026-04-26 19:22 | 54.44223 | 18.54871 | 5682 ft | 275 kts | 105° |
| 2026-04-26 19:23 | 54.43632 | 18.58000 | 5368 ft | 276 kts | 105° |
| 2026-04-26 19:23 | 54.43040 | 18.61133 | 5074 ft | 276 kts | 105° |
| 2026-04-26 19:23 | 54.42442 | 18.64249 | 4817 ft | 274 kts | 108° |
| 2026-04-26 19:23 | 54.41722 | 18.67271 | 4522 ft | 274 kts | 111° |
| 2026-04-26 19:24 | 54.40955 | 18.70268 | 4213 ft | 274 kts | 112° |
| 2026-04-26 19:24 | 54.40191 | 18.73269 | 4053 ft | 274 kts | 112° |
| 2026-04-26 19:24 | 54.38700 | 18.79190 | 4012 ft | 270 kts | 111° |
| 2026-04-26 19:25 | 54.37957 | 18.82151 | 4025 ft | 271 kts | 111° |
| 2026-04-26 19:25 | 54.37441 | 18.84175 | 4027 ft | 275 kts | 115° |
| 2026-04-26 19:25 | 54.35721 | 18.87253 | 4022 ft | 273 kts | 157° |
| 2026-04-26 19:25 | 54.33914 | 18.87907 | 4012 ft | 261 kts | 186° |
| 2026-04-26 19:26 | 54.32214 | 18.87279 | 4009 ft | 242 kts | 206° |
| 2026-04-26 19:26 | 54.30707 | 18.86150 | 4002 ft | 232 kts | 217° |
| 2026-04-26 19:26 | 54.29699 | 18.84197 | 4006 ft | 215 kts | 256° |
| 2026-04-26 19:26 | 54.29706 | 18.81721 | 4039 ft | 211 kts | 289° |
| 2026-04-26 19:27 | 54.30114 | 18.79286 | 4038 ft | 215 kts | 288° |
| 2026-04-26 19:27 | 54.30524 | 18.76797 | 3994 ft | 219 kts | 288° |
| 2026-04-26 19:27 | 54.30999 | 18.74302 | 3746 ft | 221 kts | 292° |
| 2026-04-26 19:27 | 54.31560 | 18.71886 | 3470 ft | 214 kts | 294° |
| 2026-04-26 19:28 | 54.32122 | 18.69591 | 3176 ft | 203 kts | 294° |
| 2026-04-26 19:28 | 54.32653 | 18.67427 | 2892 ft | 191 kts | 294° |
| 2026-04-26 19:28 | 54.33143 | 18.65424 | 2623 ft | 173 kts | 293° |
| 2026-04-26 19:28 | 54.33591 | 18.63595 | 2411 ft | 160 kts | 293° |
| 2026-04-26 19:29 | 54.33997 | 18.61938 | 2229 ft | 141 kts | 292° |
| 2026-04-26 19:29 | 54.34362 | 18.60448 | 2016 ft | 132 kts | 292° |
| 2026-04-26 19:29 | 54.34718 | 18.58998 | 1828 ft | 133 kts | 292° |
| 2026-04-26 19:29 | 54.35077 | 18.57530 | 1643 ft | 133 kts | 292° |
| 2026-04-26 19:30 | 54.35436 | 18.56070 | 1453 ft | 133 kts | 292° |
| 2026-04-26 19:30 | 54.35798 | 18.54596 | 1256 ft | 136 kts | 291° |
| 2026-04-26 19:30 | 54.36159 | 18.53125 | 1058 ft | 141 kts | 291° |
| 2026-04-26 19:30 | 54.36416 | 18.52084 | 923 ft | 144 kts | 290° |
| 2026-04-26 19:31 | 54.36937 | 18.49950 | 654 ft | 148 kts | 291° |
| 2026-04-26 19:31 | 54.37340 | 18.48312 | 487 ft | 148 kts | 291° |
| 2026-04-26 19:31 | 54.37700 | 18.46825 | 455 ft | 108 kts | 293° |
| 2026-04-26 19:31 | 54.37928 | 18.45975 | 456 ft | 55 kts | 305° |
| 2026-04-26 19:32 | 54.38073 | 18.45741 | 454 ft | 13 kts | 323° |
| 2026-04-26 19:32 | 54.38145 | 18.45742 | 453 ft | 13 kts | 77° |
| 2026-04-26 19:32 | 54.38138 | 18.45807 | 454 ft | 5 kts | 110° |
| 2026-04-26 19:32 | 54.38126 | 18.45856 | 455 ft | 4 kts | 112° |
| 2026-04-26 19:33 | 54.38115 | 18.45904 | 456 ft | 4 kts | 112° |
| 2026-04-26 19:33 | 54.38107 | 18.45937 | 457 ft | 0 kts | 112° |
| 2026-04-26 19:33 | 54.38098 | 18.45972 | 458 ft | 8 kts | 113° |
| 2026-04-26 19:34 | 54.38062 | 18.46117 | 457 ft | 18 kts | 113° |
| 2026-04-26 19:34 | 54.38014 | 18.46312 | 458 ft | 16 kts | 113° |
| 2026-04-26 19:34 | 54.37979 | 18.46452 | 456 ft | 10 kts | 113° |
| 2026-04-26 19:34 | 54.37968 | 18.46538 | 458 ft | 5 kts | 74° |
| 2026-04-26 19:35 | 54.37980 | 18.46598 | 456 ft | 5 kts | 78° |
| 2026-04-26 19:35 | 54.37980 | 18.46600 | 457 ft | 0 kts | 81° |
| 2026-04-26 19:35 | 54.37970 | 18.46663 | 458 ft | 12 kts | 113° |
| 2026-04-26 19:35 | 54.37960 | 18.46702 | 458 ft | 2 kts | 113° |
| 2026-04-26 19:36 | 54.37966 | 18.46752 | 458 ft | 6 kts | 43° |
| 2026-04-26 19:36 | 54.37976 | 18.46761 | 457 ft | 7 kts | 24° |
| 2026-04-26 19:36 | 54.37993 | 18.46773 | 458 ft | 4 kts | 22° |
| 2026-04-26 19:36 | 54.38019 | 18.46791 | 459 ft | 0 kts | 22° |
| 2026-04-26 19:37 | 54.38023 | 18.46794 | 458 ft | 2 kts | 22° |
| 2026-04-26 19:37 | 54.38026 | 18.46796 | 458 ft | 0 kts | 23° |